createdAt,value
2022-12-08T00:04:28.390Z,69.05
2022-12-08T00:09:38.288Z,69.70
2022-12-08T00:14:46.021Z,69.21
2022-12-08T00:19:45.114Z,69.08
2022-12-08T00:24:47.819Z,70.12
2022-12-08T00:29:46.690Z,70.45
2022-12-08T00:34:45.389Z,70.07
2022-12-08T00:39:44.124Z,69.97
2022-12-08T00:44:45.041Z,70.44
2022-12-08T00:49:43.877Z,70.40
2022-12-08T00:54:42.705Z,71.58
2022-12-08T00:59:41.522Z,72.43
2022-12-08T01:04:40.252Z,71.39
2022-12-08T01:09:38.959Z,71.67
2022-12-08T01:14:37.729Z,72.14
2022-12-08T01:19:37.612Z,71.78
2022-12-08T01:24:36.342Z,72.82
2022-12-08T01:29:35.205Z,72.88
2022-12-08T01:34:33.915Z,71.84
2022-12-08T01:39:32.632Z,72.53
2022-12-08T01:44:34.291Z,72.80
2022-12-08T01:49:35.510Z,73.78
2022-12-08T01:54:42.250Z,73.97
2022-12-08T01:59:46.788Z,74.09
2022-12-08T02:04:45.601Z,73.62
2022-12-08T02:09:45.304Z,74.31
2022-12-08T02:14:44.058Z,73.00
2022-12-08T02:20:22.023Z,74.90
2022-12-08T02:25:38.476Z,76.07
2022-12-08T02:30:46.274Z,75.03
2022-12-08T02:36:11.329Z,75.21
2022-12-08T02:41:18.932Z,76.76
2022-12-08T02:46:33.080Z,76.30
2022-12-08T02:51:31.872Z,75.66
2022-12-08T02:56:36.659Z,75.11
2022-12-08T03:02:16.545Z,73.29
2022-12-08T03:07:23.974Z,73.34
2022-12-08T03:12:32.936Z,71.95
2022-12-08T03:17:32.131Z,71.63
2022-12-08T03:22:31.779Z,72.86
2022-12-08T03:27:32.027Z,72.19
2022-12-08T03:32:53.375Z,72.19
2022-12-08T03:37:52.126Z,72.85
2022-12-08T03:42:50.839Z,72.90
2022-12-08T03:47:49.513Z,71.66
2022-12-08T03:52:48.801Z,71.16
2022-12-08T03:57:47.616Z,68.48
2022-12-08T04:02:46.454Z,69.22
2022-12-08T04:07:45.272Z,70.26
2022-12-08T04:12:44.029Z,68.88
2022-12-08T04:17:42.766Z,69.03
2022-12-08T04:22:41.466Z,69.48
2022-12-08T04:27:40.350Z,68.56
2022-12-08T04:32:42.862Z,69.22
2022-12-08T04:37:44.694Z,68.42
2022-12-08T04:42:43.451Z,69.45
2022-12-08T04:47:42.222Z,68.77
2022-12-08T04:52:40.977Z,69.62
2022-12-08T04:57:39.834Z,69.19
2022-12-08T05:02:38.482Z,70.52
2022-12-08T05:07:37.510Z,71.70
2022-12-08T05:12:36.416Z,71.30
2022-12-08T05:17:35.160Z,70.90
2022-12-08T05:22:34.003Z,70.98
2022-12-08T05:27:32.718Z,70.26
2022-12-08T05:32:31.460Z,91.57
2022-12-08T05:37:30.148Z,71.05
2022-12-08T05:42:28.991Z,61.59
2022-12-08T05:47:30.717Z,57.29
2022-12-08T05:52:33.279Z,61.73
2022-12-08T05:57:32.065Z,66.12
2022-12-08T06:02:31.015Z,68.47
2022-12-08T06:07:29.835Z,67.74
2022-12-08T06:12:28.525Z,69.47
2022-12-08T06:17:27.530Z,69.45
2022-12-08T06:22:26.283Z,67.53
2022-12-08T06:27:25.080Z,70.98
2022-12-08T06:32:27.375Z,69.68
2022-12-08T06:37:26.616Z,68.58
2022-12-08T06:42:43.856Z,67.86
2022-12-08T06:47:43.555Z,69.65
2022-12-08T06:52:53.271Z,68.59
2022-12-08T06:57:54.666Z,69.00
2022-12-08T07:02:53.465Z,69.07
2022-12-08T07:07:52.383Z,68.43
2022-12-08T07:12:53.762Z,67.96
2022-12-08T07:17:57.933Z,68.13
2022-12-08T07:22:58.748Z,69.23
2022-12-08T07:27:57.526Z,70.08
2022-12-08T07:32:56.340Z,70.49
2022-12-08T07:37:55.080Z,71.44
2022-12-08T07:42:53.822Z,69.73
2022-12-08T07:47:52.594Z,71.33
2022-12-08T07:52:51.465Z,70.57
2022-12-08T07:57:51.345Z,72.12
2022-12-08T08:02:50.196Z,70.73
2022-12-08T08:07:52.092Z,71.45
2022-12-08T08:12:50.891Z,71.79
2022-12-08T08:17:54.001Z,71.34
2022-12-08T08:22:52.897Z,72.16
2022-12-08T08:27:51.817Z,72.18
2022-12-08T08:32:50.923Z,72.39
2022-12-08T08:37:49.781Z,72.20
2022-12-08T08:42:48.633Z,71.59
2022-12-08T08:47:47.496Z,72.70
2022-12-08T08:52:46.238Z,73.58
2022-12-08T08:57:45.072Z,73.66
2022-12-08T09:02:43.873Z,72.07
2022-12-08T09:07:42.699Z,71.90
2022-12-08T09:12:41.505Z,70.93
2022-12-08T09:17:40.323Z,70.82
2022-12-08T09:22:38.994Z,70.28
2022-12-08T09:27:37.728Z,70.23
2022-12-08T09:32:36.492Z,69.98
2022-12-08T09:37:35.387Z,70.65
2022-12-08T09:42:50.692Z,70.69
2022-12-08T09:48:00.992Z,68.94
2022-12-08T09:53:35.456Z,68.11
2022-12-08T09:58:50.310Z,68.09
2022-12-08T10:03:49.993Z,66.77
2022-12-08T10:09:00.754Z,65.99
2022-12-08T10:14:34.850Z,65.05
2022-12-08T10:19:35.202Z,64.72
2022-12-08T10:24:40.822Z,63.33
2022-12-08T10:29:40.572Z,62.38
2022-12-08T10:35:00.046Z,62.46
2022-12-08T10:40:09.395Z,63.34
2022-12-08T10:45:18.666Z,62.63
2022-12-08T10:50:21.169Z,62.84
2022-12-08T10:55:21.495Z,61.85
2022-12-08T11:00:24.192Z,63.77
2022-12-08T11:05:26.184Z,62.71
2022-12-08T11:10:37.490Z,62.31
2022-12-08T11:15:39.635Z,62.68
2022-12-08T11:20:41.330Z,62.75
2022-12-08T11:25:40.426Z,62.48
2022-12-08T11:30:45.499Z,61.91
2022-12-08T11:35:47.515Z,62.40
2022-12-08T11:40:48.406Z,63.06
2022-12-08T11:45:59.078Z,62.39
2022-12-08T11:51:08.665Z,61.62
2022-12-08T11:56:19.262Z,60.61
2022-12-08T12:01:26.713Z,61.12
2022-12-08T12:06:55.810Z,59.00
2022-12-08T12:12:16.077Z,58.86
2022-12-08T12:17:23.749Z,57.62
2022-12-08T12:22:24.167Z,58.75
2022-12-08T12:27:45.061Z,57.13
2022-12-08T12:32:54.432Z,56.56
2022-12-08T12:37:59.001Z,56.92
2022-12-08T12:42:57.687Z,56.94
2022-12-08T12:47:57.177Z,57.12
2022-12-08T12:52:56.479Z,57.65
2022-12-08T12:57:58.513Z,57.61
2022-12-08T13:02:59.264Z,58.76
2022-12-08T13:08:26.615Z,58.47
2022-12-08T13:13:25.630Z,57.98
2022-12-08T13:18:46.991Z,59.84
2022-12-08T13:24:14.632Z,59.86
2022-12-08T13:29:20.030Z,59.59
2022-12-08T13:34:42.188Z,59.52
2022-12-08T13:39:40.920Z,60.37
2022-12-08T13:45:24.072Z,59.63
2022-12-08T14:01:21.769Z,61.76
2022-12-08T14:06:29.306Z,62.21
2022-12-08T14:11:41.126Z,62.66
2022-12-08T14:16:42.789Z,62.56
2022-12-08T14:21:41.598Z,62.02
2022-12-08T14:26:40.455Z,63.25
2022-12-08T14:31:40.463Z,63.55
2022-12-08T14:36:39.213Z,63.64
2022-12-08T14:41:39.282Z,64.70
2022-12-08T14:46:38.415Z,64.38
2022-12-08T14:51:37.231Z,65.04
2022-12-08T14:56:53.695Z,64.93
2022-12-08T15:02:08.974Z,65.41
2022-12-08T15:07:13.130Z,66.60
2022-12-08T15:12:11.809Z,67.98
2022-12-08T15:17:44.115Z,68.08
2022-12-08T15:22:43.011Z,67.70
2022-12-08T15:27:50.207Z,67.95
2022-12-08T15:32:52.307Z,67.00
2022-12-08T15:37:51.139Z,67.33
2022-12-08T15:42:50.102Z,65.86
2022-12-08T15:47:48.874Z,66.54
2022-12-08T15:52:48.566Z,66.36
2022-12-08T16:09:00.729Z,65.28
2022-12-08T16:15:01.459Z,64.46
2022-12-08T16:19:27.448Z,64.46
2022-12-08T16:24:26.154Z,64.41
2022-12-08T16:29:24.994Z,65.14
2022-12-08T16:34:23.681Z,64.28
2022-12-08T16:39:22.477Z,64.15
2022-12-08T16:44:21.170Z,64.64
2022-12-08T16:49:19.903Z,64.53
2022-12-08T16:54:18.648Z,63.66
2022-12-08T16:59:17.331Z,64.21
2022-12-08T17:04:31.344Z,64.34
2022-12-08T17:09:31.409Z,63.71
2022-12-08T17:14:33.420Z,64.46
2022-12-08T17:19:32.697Z,63.91
2022-12-08T17:24:31.908Z,65.70
2022-12-08T17:29:32.088Z,64.32
2022-12-08T17:34:30.810Z,64.22
2022-12-08T17:39:29.587Z,64.33
2022-12-08T17:44:28.452Z,63.98
2022-12-08T17:49:29.844Z,64.32
2022-12-08T17:54:29.166Z,62.87
2022-12-08T17:59:28.938Z,62.75
2022-12-08T18:04:28.038Z,62.20
2022-12-08T18:09:27.270Z,62.90
2022-12-08T18:14:26.381Z,62.01
2022-12-08T18:19:27.031Z,63.42
2022-12-08T18:24:26.577Z,63.24
2022-12-08T18:29:27.267Z,61.79
2022-12-08T18:34:26.292Z,62.17
2022-12-08T18:39:28.738Z,60.67
2022-12-08T18:44:29.126Z,63.44
2022-12-08T18:49:27.863Z,63.10
2022-12-08T18:54:37.052Z,62.71
2022-12-08T18:59:45.914Z,62.97
2022-12-08T19:04:45.161Z,62.72
2022-12-08T19:09:44.279Z,64.08
2022-12-08T19:14:43.013Z,62.17
2022-12-08T19:19:42.058Z,62.41
2022-12-08T19:24:40.880Z,62.67
2022-12-08T19:29:39.670Z,61.54
2022-12-08T19:34:38.579Z,62.20
2022-12-08T19:39:56.019Z,62.67
2022-12-08T19:44:54.912Z,61.58
2022-12-08T19:50:17.470Z,61.95
2022-12-08T19:55:17.101Z,62.53
2022-12-08T20:00:16.735Z,64.21
2022-12-08T20:05:16.038Z,63.03
2022-12-08T20:10:19.325Z,62.29
2022-12-08T20:15:18.373Z,61.77
2022-12-08T20:20:17.141Z,61.54
2022-12-08T20:25:16.059Z,62.40
2022-12-08T20:30:17.237Z,62.20
2022-12-08T20:35:16.728Z,62.03
2022-12-08T20:40:15.475Z,62.38
2022-12-08T20:45:14.302Z,61.94
2022-12-08T20:50:13.129Z,62.48
2022-12-08T20:55:11.957Z,64.38
2022-12-08T21:00:11.491Z,63.33
2022-12-08T21:05:10.776Z,65.11
2022-12-08T21:10:10.948Z,64.99
2022-12-08T21:15:12.517Z,64.67
2022-12-08T21:20:12.030Z,65.00
2022-12-08T21:25:11.314Z,65.38
2022-12-08T21:30:11.239Z,90.26
2022-12-08T21:35:11.174Z,69.75
2022-12-08T21:40:11.285Z,63.06
2022-12-08T21:45:16.756Z,55.34
2022-12-08T21:50:16.909Z,61.14
2022-12-08T21:55:19.097Z,62.90
2022-12-08T22:00:18.889Z,65.54
2022-12-08T22:05:17.701Z,66.69
2022-12-08T22:10:16.791Z,65.77
2022-12-08T22:15:15.775Z,65.66
2022-12-08T22:20:15.938Z,65.71
2022-12-08T22:25:15.013Z,66.39
2022-12-08T22:30:13.961Z,66.86
2022-12-08T22:35:12.723Z,66.52
2022-12-08T22:40:12.052Z,66.28
2022-12-08T22:45:11.668Z,67.05
2022-12-08T22:50:11.306Z,67.18
2022-12-08T22:55:10.489Z,67.42
2022-12-08T23:00:11.636Z,67.79
2022-12-08T23:05:11.170Z,67.39
2022-12-08T23:10:11.338Z,67.62
2022-12-08T23:15:11.070Z,67.73
2022-12-08T23:20:10.805Z,69.04
2022-12-08T23:25:10.113Z,68.26
2022-12-08T23:30:10.045Z,68.68
2022-12-08T23:35:09.498Z,67.72
2022-12-08T23:40:08.976Z,69.64
2022-12-08T23:45:08.929Z,68.59
2022-12-08T23:50:08.681Z,69.30
2022-12-08T23:55:08.809Z,71.37
